sensor_id;sensor_type;location;lat;lon;timestamp;pressure;altitude;pressure_sealevel;temperature;humidity
51297;BME280;37380;45.186;9.792;2023-02-12T00:01:10;102469.22;;;-3.02;100.00
51297;BME280;37380;45.186;9.792;2023-02-12T00:04:08;102760.19;;;-1.33;100.00
51297;BME280;37380;45.186;9.792;2023-02-12T00:06:42;102399.34;;;-3.38;100.00
51297;BME280;37380;45.186;9.792;2023-02-12T00:09:18;102412.28;;;-3.30;100.00
51297;BME280;37380;45.186;9.792;2023-02-12T00:11:59;102411.38;;;-3.37;100.00
51297;BME280;37380;45.186;9.792;2023-02-12T00:14:30;102376.03;;;-3.49;100.00
51297;BME280;37380;45.186;9.792;2023-02-12T00:17:03;102633.03;;;-1.99;100.00
51297;BME280;37380;45.186;9.792;2023-02-12T00:19:30;102423.63;;;-3.28;100.00
51297;BME280;37380;45.186;9.792;2023-02-12T00:21:58;102436.91;;;-3.23;100.00
51297;BME280;37380;45.186;9.792;2023-02-12T00:24:32;102512.66;;;-2.95;100.00
51297;BME280;37380;45.186;9.792;2023-02-12T00:27:00;102644.00;;;-1.93;100.00
51297;BME280;37380;45.186;9.792;2023-02-12T00:29:27;102663.94;;;-1.90;100.00
51297;BME280;37380;45.186;9.792;2023-02-12T00:31:55;102739.84;;;-1.32;100.00
51297;BME280;37380;45.186;9.792;2023-02-12T00:34:25;102748.28;;;-1.40;100.00
51297;BME280;37380;45.186;9.792;2023-02-12T00:36:52;102670.16;;;-1.88;100.00
51297;BME280;37380;45.186;9.792;2023-02-12T00:39:20;102762.41;;;-1.44;100.00
51297;BME280;37380;45.186;9.792;2023-02-12T00:41:47;102771.06;;;-1.50;100.00
51297;BME280;37380;45.186;9.792;2023-02-12T00:44:14;102733.81;;;-1.77;100.00
51297;BME280;37380;45.186;9.792;2023-02-12T00:46:41;102730.06;;;-1.57;100.00
51297;BME280;37380;45.186;9.792;2023-02-12T00:49:08;102762.81;;;-1.55;100.00
51297;BME280;37380;45.186;9.792;2023-02-12T00:51:44;102768.50;;;-1.50;100.00
51297;BME280;37380;45.186;9.792;2023-02-12T00:54:45;102753.31;;;-1.56;100.00
51297;BME280;37380;45.186;9.792;2023-02-12T00:57:46;102727.94;;;-1.76;100.00
51297;BME280;37380;45.186;9.792;2023-02-12T01:00:40;102638.84;;;-2.37;100.00
51297;BME280;37380;45.186;9.792;2023-02-12T01:03:08;102665.34;;;-2.30;100.00
51297;BME280;37380;45.186;9.792;2023-02-12T01:05:36;102747.19;;;-1.87;100.00
51297;BME280;37380;45.186;9.792;2023-02-12T01:08:06;102725.63;;;-1.96;100.00
51297;BME280;37380;45.186;9.792;2023-02-12T01:10:33;102754.63;;;-1.67;100.00
51297;BME280;37380;45.186;9.792;2023-02-12T01:13:01;102568.75;;;-2.89;100.00
51297;BME280;37380;45.186;9.792;2023-02-12T01:15:28;102587.72;;;-2.73;100.00
51297;BME280;37380;45.186;9.792;2023-02-12T01:17:56;102641.41;;;-2.52;100.00
51297;BME280;37380;45.186;9.792;2023-02-12T01:20:24;102558.34;;;-2.98;100.00
51297;BME280;37380;45.186;9.792;2023-02-12T01:22:52;102475.28;;;-3.59;100.00
51297;BME280;37380;45.186;9.792;2023-02-12T01:25:19;102705.03;;;-2.26;100.00
51297;BME280;37380;45.186;9.792;2023-02-12T01:27:46;102572.03;;;-2.76;100.00
51297;BME280;37380;45.186;9.792;2023-02-12T01:30:15;102541.16;;;-2.85;100.00
51297;BME280;37380;45.186;9.792;2023-02-12T01:32:48;102578.97;;;-3.18;100.00
51297;BME280;37380;45.186;9.792;2023-02-12T01:35:42;102577.91;;;-3.13;100.00
51297;BME280;37380;45.186;9.792;2023-02-12T01:38:10;102677.63;;;-2.63;100.00
51297;BME280;37380;45.186;9.792;2023-02-12T01:40:44;102820.16;;;-1.69;100.00
51297;BME280;37380;45.186;9.792;2023-02-12T01:44:04;102807.34;;;-1.62;100.00
51297;BME280;37380;45.186;9.792;2023-02-12T01:47:17;102405.22;;;-3.75;100.00
51297;BME280;37380;45.186;9.792;2023-02-12T01:50:16;102782.81;;;-1.67;100.00
51297;BME280;37380;45.186;9.792;2023-02-12T01:52:50;102627.56;;;-2.75;100.00
51297;BME280;37380;45.186;9.792;2023-02-12T01:55:26;102594.69;;;-2.86;100.00
51297;BME280;37380;45.186;9.792;2023-02-12T01:58:21;102704.78;;;-2.13;100.00
51297;BME280;37380;45.186;9.792;2023-02-12T02:01:26;102739.31;;;-1.88;100.00
51297;BME280;37380;45.186;9.792;2023-02-12T02:04:23;102747.75;;;-1.96;100.00
51297;BME280;37380;45.186;9.792;2023-02-12T02:07:00;102733.66;;;-1.86;100.00
51297;BME280;37380;45.186;9.792;2023-02-12T02:09:32;102733.66;;;-1.86;100.00
51297;BME280;37380;45.186;9.792;2023-02-12T02:12:01;102584.44;;;-2.86;100.00
51297;BME280;37380;45.186;9.792;2023-02-12T02:14:48;102577.50;;;-2.73;100.00
51297;BME280;37380;45.186;9.792;2023-02-12T02:32:00;102680.28;;;-2.11;100.00
51297;BME280;37380;45.186;9.792;2023-02-12T02:34:54;102704.03;;;-1.98;100.00
51297;BME280;37380;45.186;9.792;2023-02-12T02:40:16;102699.59;;;-1.85;100.00
51297;BME280;37380;45.186;9.792;2023-02-12T02:43:27;102522.50;;;-2.84;100.00
51297;BME280;37380;45.186;9.792;2023-02-12T02:46:19;102271.78;;;-4.10;100.00
51297;BME280;37380;45.186;9.792;2023-02-12T02:49:00;102629.63;;;-2.14;100.00
51297;BME280;37380;45.186;9.792;2023-02-12T02:51:40;102498.22;;;-2.94;100.00
51297;BME280;37380;45.186;9.792;2023-02-12T02:54:35;102294.00;;;-4.23;100.00
51297;BME280;37380;45.186;9.792;2023-02-12T02:57:59;102692.25;;;-1.74;100.00
51297;BME280;37380;45.186;9.792;2023-02-12T03:04:58;102328.44;;;-3.91;100.00
51297;BME280;37380;45.186;9.792;2023-02-12T03:08:40;102720.88;;;-1.48;100.00
51297;BME280;37380;45.186;9.792;2023-02-12T03:11:46;102585.78;;;-2.31;100.00
51297;BME280;37380;45.186;9.792;2023-02-12T03:15:01;102708.78;;;-1.49;100.00
51297;BME280;37380;45.186;9.792;2023-02-12T03:18:04;102540.50;;;-2.54;100.00
51297;BME280;37380;45.186;9.792;2023-02-12T03:21:34;102726.22;;;-1.54;100.00
51297;BME280;37380;45.186;9.792;2023-02-12T03:24:56;102593.31;;;-2.33;100.00
51297;BME280;37380;45.186;9.792;2023-02-12T03:31:28;102712.25;;;-1.86;100.00
51297;BME280;37380;45.186;9.792;2023-02-12T03:42:00;102330.28;;;-4.26;100.00
51297;BME280;37380;45.186;9.792;2023-02-12T03:44:58;102697.66;;;-2.09;100.00
51297;BME280;37380;45.186;9.792;2023-02-12T03:52:02;102327.94;;;-4.10;100.00
51297;BME280;37380;45.186;9.792;2023-02-12T04:00:32;102454.84;;;-3.45;100.00
51297;BME280;37380;45.186;9.792;2023-02-12T04:03:33;102682.34;;;-2.23;100.00
51297;BME280;37380;45.186;9.792;2023-02-12T04:06:23;102456.84;;;-3.42;100.00
51297;BME280;37380;45.186;9.792;2023-02-12T04:08:52;102480.75;;;-3.27;100.00
51297;BME280;37380;45.186;9.792;2023-02-12T04:11:40;102713.50;;;-1.83;100.00
51297;BME280;37380;45.186;9.792;2023-02-12T04:14:31;102456.31;;;-3.47;100.00
51297;BME280;37380;45.186;9.792;2023-02-12T04:17:31;102699.84;;;-2.05;100.00
51297;BME280;37380;45.186;9.792;2023-02-12T04:32:03;102698.78;;;-2.21;100.00
51297;BME280;37380;45.186;9.792;2023-02-12T04:37:35;102456.13;;;-3.70;100.00
51297;BME280;37380;45.186;9.792;2023-02-12T04:40:11;102628.66;;;-2.73;100.00
51297;BME280;37380;45.186;9.792;2023-02-12T04:42:45;102478.94;;;-3.71;100.00
51297;BME280;37380;45.186;9.792;2023-02-12T04:45:19;102500.47;;;-3.62;100.00
51297;BME280;37380;45.186;9.792;2023-02-12T04:47:47;102701.03;;;-2.53;100.00
51297;BME280;37380;45.186;9.792;2023-02-12T04:50:15;102458.13;;;-3.89;100.00
51297;BME280;37380;45.186;9.792;2023-02-12T04:52:43;102456.69;;;-3.65;100.00
51297;BME280;37380;45.186;9.792;2023-02-12T04:55:17;102701.91;;;-2.23;100.00
51297;BME280;37380;45.186;9.792;2023-02-12T04:58:18;102458.88;;;-3.68;100.00
51297;BME280;37380;45.186;9.792;2023-02-12T05:01:19;102576.44;;;-2.97;100.00
51297;BME280;37380;45.186;9.792;2023-02-12T05:04:20;102709.75;;;-2.15;100.00
51297;BME280;37380;45.186;9.792;2023-02-12T05:07:15;102474.94;;;-3.55;100.00
51297;BME280;37380;45.186;9.792;2023-02-12T05:09:43;102447.19;;;-3.59;100.00
51297;BME280;37380;45.186;9.792;2023-02-12T05:12:10;102453.22;;;-3.51;100.00
51297;BME280;37380;45.186;9.792;2023-02-12T05:14:44;102454.13;;;-3.87;100.00
51297;BME280;37380;45.186;9.792;2023-02-12T05:17:40;102431.13;;;-4.01;100.00
51297;BME280;37380;45.186;9.792;2023-02-12T05:20:09;102422.56;;;-3.94;100.00
51297;BME280;37380;45.186;9.792;2023-02-12T05:22:41;102574.94;;;-3.09;100.00
51297;BME280;37380;45.186;9.792;2023-02-12T05:25:08;102431.34;;;-3.78;100.00
51297;BME280;37380;45.186;9.792;2023-02-12T05:27:36;102460.50;;;-3.97;100.00
51297;BME280;37380;45.186;9.792;2023-02-12T05:30:07;102587.75;;;-3.16;100.00
51297;BME280;37380;45.186;9.792;2023-02-12T05:32:35;102454.47;;;-3.91;100.00
51297;BME280;37380;45.186;9.792;2023-02-12T05:35:06;102459.72;;;-4.11;100.00
51297;BME280;37380;45.186;9.792;2023-02-12T05:37:35;102559.25;;;-3.41;100.00
51297;BME280;37380;45.186;9.792;2023-02-12T05:40:04;102415.25;;;-4.13;100.00
51297;BME280;37380;45.186;9.792;2023-02-12T05:42:34;102447.00;;;-3.96;100.00
51297;BME280;37380;45.186;9.792;2023-02-12T05:45:02;102549.94;;;-3.19;100.00
51297;BME280;37380;45.186;9.792;2023-02-12T05:47:49;102428.94;;;-4.12;100.00
51297;BME280;37380;45.186;9.792;2023-02-12T05:50:19;102482.53;;;-4.05;100.00
51297;BME280;37380;45.186;9.792;2023-02-12T05:53:01;102431.50;;;-4.12;100.00
51297;BME280;37380;45.186;9.792;2023-02-12T05:55:35;102448.84;;;-3.95;100.00
51297;BME280;37380;45.186;9.792;2023-02-12T05:58:30;102449.38;;;-3.62;100.00
51297;BME280;37380;45.186;9.792;2023-02-12T06:00:57;102430.75;;;-3.75;100.00
51297;BME280;37380;45.186;9.792;2023-02-12T06:03:27;102554.13;;;-3.12;100.00
51297;BME280;37380;45.186;9.792;2023-02-12T06:05:54;102425.13;;;-4.01;100.00
51297;BME280;37380;45.186;9.792;2023-02-12T06:08:23;102650.03;;;-2.58;100.00
51297;BME280;37380;45.186;9.792;2023-02-12T06:10:51;102565.09;;;-3.13;100.00
51297;BME280;37380;45.186;9.792;2023-02-12T06:13:24;102426.19;;;-3.99;100.00
51297;BME280;37380;45.186;9.792;2023-02-12T06:16:29;102468.00;;;-3.56;100.00
51297;BME280;37380;45.186;9.792;2023-02-12T06:19:54;102536.97;;;-3.20;100.00
51297;BME280;37380;45.186;9.792;2023-02-12T06:22:33;102399.03;;;-3.99;100.00
51297;BME280;37380;45.186;9.792;2023-02-12T06:25:46;102689.28;;;-2.29;100.00
51297;BME280;37380;45.186;9.792;2023-02-12T06:28:49;102582.63;;;-2.73;100.00
51297;BME280;37380;45.186;9.792;2023-02-12T06:31:31;102580.03;;;-2.59;100.00
51297;BME280;37380;45.186;9.792;2023-02-12T06:34:05;102692.50;;;-1.94;100.00
51297;BME280;37380;45.186;9.792;2023-02-12T06:36:39;102613.78;;;-2.33;100.00
51297;BME280;37380;45.186;9.792;2023-02-12T06:39:20;102567.16;;;-2.44;100.00
51297;BME280;37380;45.186;9.792;2023-02-12T06:42:02;102527.59;;;-2.69;100.00
51297;BME280;37380;45.186;9.792;2023-02-12T06:44:30;102453.31;;;-3.07;100.00
51297;BME280;37380;45.186;9.792;2023-02-12T06:47:13;102597.09;;;-2.22;100.00
51297;BME280;37380;45.186;9.792;2023-02-12T06:49:51;102467.13;;;-2.83;100.00
51297;BME280;37380;45.186;9.792;2023-02-12T06:52:26;102561.31;;;-1.99;100.00
51297;BME280;37380;45.186;9.792;2023-02-12T06:54:56;102636.88;;;-1.58;100.00
51297;BME280;37380;45.186;9.792;2023-02-12T06:57:50;102494.28;;;-2.62;100.00
51297;BME280;37380;45.186;9.792;2023-02-12T07:00:47;102505.06;;;-2.58;100.00
51297;BME280;37380;45.186;9.792;2023-02-12T07:03:19;102652.38;;;-1.49;100.00
51297;BME280;37380;45.186;9.792;2023-02-12T07:05:51;102643.00;;;-1.42;100.00
51297;BME280;37380;45.186;9.792;2023-02-12T07:08:33;102742.06;;;-0.75;100.00
51297;BME280;37380;45.186;9.792;2023-02-12T07:11:16;102496.66;;;-2.12;100.00
51297;BME280;37380;45.186;9.792;2023-02-12T07:14:31;102527.13;;;-2.07;100.00
51297;BME280;37380;45.186;9.792;2023-02-12T07:17:08;102529.59;;;-1.85;100.00
51297;BME280;37380;45.186;9.792;2023-02-12T07:20:02;102539.31;;;-1.60;100.00
51297;BME280;37380;45.186;9.792;2023-02-12T07:23:22;102645.97;;;-1.16;100.00
51297;BME280;37380;45.186;9.792;2023-02-12T07:26:23;102448.56;;;-2.22;100.00
51297;BME280;37380;45.186;9.792;2023-02-12T07:29:02;102759.94;;;-0.37;100.00
51297;BME280;37380;45.186;9.792;2023-02-12T07:31:29;102754.69;;;-0.46;100.00
51297;BME280;37380;45.186;9.792;2023-02-12T07:33:58;102667.09;;;-0.56;100.00
51297;BME280;37380;45.186;9.792;2023-02-12T07:36:27;102601.19;;;-0.87;100.00
51297;BME280;37380;45.186;9.792;2023-02-12T07:38:59;102552.28;;;-0.89;100.00
51297;BME280;37380;45.186;9.792;2023-02-12T07:41:31;102465.59;;;-1.46;100.00
51297;BME280;37380;45.186;9.792;2023-02-12T07:44:01;102650.16;;;-0.15;100.00
51297;BME280;37380;45.186;9.792;2023-02-12T07:46:35;102777.59;;;0.46;100.00
51297;BME280;37380;45.186;9.792;2023-02-12T07:49:04;102768.00;;;0.68;100.00
51297;BME280;37380;45.186;9.792;2023-02-12T07:51:33;102719.13;;;0.52;100.00
51297;BME280;37380;45.186;9.792;2023-02-12T07:54:01;102776.59;;;0.84;100.00
51297;BME280;37380;45.186;9.792;2023-02-12T07:56:36;102720.19;;;0.70;100.00
51297;BME280;37380;45.186;9.792;2023-02-12T07:59:23;102674.59;;;0.44;100.00
51297;BME280;37380;45.186;9.792;2023-02-12T08:01:51;102785.56;;;1.12;100.00
51297;BME280;37380;45.186;9.792;2023-02-12T08:04:20;102777.16;;;1.47;100.00
51297;BME280;37380;45.186;9.792;2023-02-12T08:06:50;102721.06;;;1.44;100.00
51297;BME280;37380;45.186;9.792;2023-02-12T08:09:26;102779.22;;;2.09;100.00
51297;BME280;37380;45.186;9.792;2023-02-12T08:12:20;102715.25;;;2.22;100.00
51297;BME280;37380;45.186;9.792;2023-02-12T08:14:46;102772.78;;;2.90;100.00
51297;BME280;37380;45.186;9.792;2023-02-12T08:17:13;102744.03;;;3.13;100.00
51297;BME280;37380;45.186;9.792;2023-02-12T08:19:40;102762.31;;;2.89;100.00
51297;BME280;37380;45.186;9.792;2023-02-12T08:22:14;102757.88;;;2.10;100.00
51297;BME280;37380;45.186;9.792;2023-02-12T08:25:15;102766.06;;;2.23;100.00
51297;BME280;37380;45.186;9.792;2023-02-12T08:28:09;102799.94;;;2.43;100.00
51297;BME280;37380;45.186;9.792;2023-02-12T08:31:06;102796.63;;;2.79;100.00
51297;BME280;37380;45.186;9.792;2023-02-12T08:33:51;102776.16;;;3.52;100.00
51297;BME280;37380;45.186;9.792;2023-02-12T08:36:30;102801.84;;;3.59;100.00
51297;BME280;37380;45.186;9.792;2023-02-12T08:39:04;102463.66;;;1.89;100.00
51297;BME280;37380;45.186;9.792;2023-02-12T08:41:32;102487.09;;;2.27;100.00
51297;BME280;37380;45.186;9.792;2023-02-12T08:44:01;102814.66;;;4.49;100.00
51297;BME280;37380;45.186;9.792;2023-02-12T08:46:32;102682.25;;;3.98;100.00
51297;BME280;37380;45.186;9.792;2023-02-12T08:49:07;102502.31;;;2.88;100.00
51297;BME280;37380;45.186;9.792;2023-02-12T08:51:38;102511.34;;;3.02;100.00
51297;BME280;37380;45.186;9.792;2023-02-12T08:54:12;102501.63;;;2.26;100.00
51297;BME280;37380;45.186;9.792;2023-02-12T08:56:51;102705.66;;;3.44;100.00
51297;BME280;37380;45.186;9.792;2023-02-12T08:59:52;102489.88;;;2.56;100.00
51297;BME280;37380;45.186;9.792;2023-02-12T09:02:20;102533.91;;;2.40;100.00
51297;BME280;37380;45.186;9.792;2023-02-12T09:04:49;102626.34;;;3.07;100.00
51297;BME280;37380;45.186;9.792;2023-02-12T09:07:29;102518.16;;;2.82;100.00
51297;BME280;37380;45.186;9.792;2023-02-12T09:10:32;102544.09;;;3.20;100.00
51297;BME280;37380;45.186;9.792;2023-02-12T09:13:35;102846.78;;;4.51;100.00
51297;BME280;37380;45.186;9.792;2023-02-12T09:16:34;102497.41;;;2.27;100.00
51297;BME280;37380;45.186;9.792;2023-02-12T09:19:03;102521.59;;;2.46;100.00
51297;BME280;37380;45.186;9.792;2023-02-12T09:21:40;102511.59;;;2.41;100.00
51297;BME280;37380;45.186;9.792;2023-02-12T09:24:40;102588.41;;;3.25;100.00
51297;BME280;37380;45.186;9.792;2023-02-12T09:27:08;102828.78;;;4.80;100.00
51297;BME280;37380;45.186;9.792;2023-02-12T09:29:36;102513.53;;;3.44;100.00
51297;BME280;37380;45.186;9.792;2023-02-12T09:32:04;102835.72;;;5.96;100.00
51297;BME280;37380;45.186;9.792;2023-02-12T09:34:36;102656.13;;;4.32;98.29
51297;BME280;37380;45.186;9.792;2023-02-12T09:37:06;102729.66;;;4.72;100.00
51297;BME280;37380;45.186;9.792;2023-02-12T09:39:33;102521.75;;;4.44;95.98
51297;BME280;37380;45.186;9.792;2023-02-12T09:45:09;102844.88;;;5.82;93.77
51297;BME280;37380;45.186;9.792;2023-02-12T09:47:53;102846.16;;;5.87;95.00
51297;BME280;37380;45.186;9.792;2023-02-12T09:50:42;102536.25;;;3.94;96.98
51297;BME280;37380;45.186;9.792;2023-02-12T09:53:16;102884.53;;;6.00;96.53
51297;BME280;37380;45.186;9.792;2023-02-12T09:55:51;102577.09;;;4.65;94.91
51297;BME280;37380;45.186;9.792;2023-02-12T09:58:55;102655.88;;;5.17;93.37
51297;BME280;37380;45.186;9.792;2023-02-12T10:01:57;102555.91;;;4.40;94.78
51297;BME280;37380;45.186;9.792;2023-02-12T10:04:35;102553.38;;;4.90;94.83
51297;BME280;37380;45.186;9.792;2023-02-12T10:19:12;102856.94;;;7.03;92.92
51297;BME280;37380;45.186;9.792;2023-02-12T10:22:09;102566.94;;;5.67;90.35
51297;BME280;37380;45.186;9.792;2023-02-12T10:27:56;102549.28;;;5.94;88.43
51297;BME280;37380;45.186;9.792;2023-02-12T10:30:47;102540.19;;;5.68;89.08
51297;BME280;37380;45.186;9.792;2023-02-12T10:33:52;102695.00;;;7.58;91.79
51297;BME280;37380;45.186;9.792;2023-02-12T10:36:36;102853.31;;;8.86;84.31
51297;BME280;37380;45.186;9.792;2023-02-12T10:44:55;102519.47;;;6.53;85.91
51297;BME280;37380;45.186;9.792;2023-02-12T10:47:24;102881.72;;;8.49;86.48
51297;BME280;37380;45.186;9.792;2023-02-12T10:50:12;102520.13;;;6.29;88.58
51297;BME280;37380;45.186;9.792;2023-02-12T10:53:21;102632.16;;;7.20;90.93
51297;BME280;37380;45.186;9.792;2023-02-12T10:56:24;102534.00;;;7.06;88.60
51297;BME280;37380;45.186;9.792;2023-02-12T10:59:23;102812.50;;;8.86;90.86
51297;BME280;37380;45.186;9.792;2023-02-12T11:01:54;102801.84;;;8.95;91.97
51297;BME280;37380;45.186;9.792;2023-02-12T11:07:00;102613.69;;;8.18;93.34
51297;BME280;37380;45.186;9.792;2023-02-12T11:09:48;102422.78;;;6.90;93.90
51297;BME280;37380;45.186;9.792;2023-02-12T11:12:50;102451.56;;;7.38;94.49
51297;BME280;37380;45.186;9.792;2023-02-12T11:15:48;102785.97;;;9.03;94.37
51297;BME280;37380;45.186;9.792;2023-02-12T11:18:24;102468.03;;;7.27;95.30
51297;BME280;37380;45.186;9.792;2023-02-12T11:21:06;102472.88;;;8.15;97.90
51297;BME280;37380;45.186;9.792;2023-02-12T11:30:20;102477.59;;;8.32;90.63
51297;BME280;37380;45.186;9.792;2023-02-12T11:32:52;102541.00;;;8.68;91.38
51297;BME280;37380;45.186;9.792;2023-02-12T11:35:26;102738.41;;;9.55;90.47
51297;BME280;37380;45.186;9.792;2023-02-12T11:38:03;102551.09;;;8.40;90.18
51297;BME280;37380;45.186;9.792;2023-02-12T11:40:32;102500.13;;;8.20;90.25
51297;BME280;37380;45.186;9.792;2023-02-12T11:43:03;102478.78;;;8.01;89.29
51297;BME280;37380;45.186;9.792;2023-02-12T11:45:44;102752.91;;;9.88;88.59
51297;BME280;37380;45.186;9.792;2023-02-12T11:48:39;102474.78;;;8.78;86.19
51297;BME280;37380;45.186;9.792;2023-02-12T11:51:18;102466.28;;;8.44;86.70
51297;BME280;37380;45.186;9.792;2023-02-12T11:53:50;102744.72;;;10.45;85.02
51297;BME280;37380;45.186;9.792;2023-02-12T11:56:43;102708.94;;;9.81;84.38
51297;BME280;37380;45.186;9.792;2023-02-12T11:59:46;102651.06;;;9.74;85.07
51297;BME280;37380;45.186;9.792;2023-02-12T12:02:21;102481.03;;;9.05;82.59
51297;BME280;37380;45.186;9.792;2023-02-12T12:05:02;102474.53;;;9.12;81.65
51297;BME280;37380;45.186;9.792;2023-02-12T12:07:38;102766.28;;;10.81;80.49
51297;BME280;37380;45.186;9.792;2023-02-12T12:10:24;102748.56;;;10.50;83.04
51297;BME280;37380;45.186;9.792;2023-02-12T12:13:04;102636.75;;;9.94;79.78
51297;BME280;37380;45.186;9.792;2023-02-12T12:15:45;102732.50;;;10.71;80.85
51297;BME280;37380;45.186;9.792;2023-02-12T12:19:10;102448.81;;;9.04;78.80
51297;BME280;37380;45.186;9.792;2023-02-12T12:25:29;102458.13;;;9.39;80.29
51297;BME280;37380;45.186;9.792;2023-02-12T12:28:46;102436.78;;;9.45;79.93
51297;BME280;37380;45.186;9.792;2023-02-12T12:31:46;102445.63;;;9.09;76.71
51297;BME280;37380;45.186;9.792;2023-02-12T12:34:21;102448.38;;;9.23;75.73
51297;BME280;37380;45.186;9.792;2023-02-12T12:37:16;102728.25;;;10.99;77.26
51297;BME280;37380;45.186;9.792;2023-02-12T12:42:37;102727.88;;;11.06;74.97
51297;BME280;37380;45.186;9.792;2023-02-12T12:55:01;102736.50;;;11.32;74.99
51297;BME280;37380;45.186;9.792;2023-02-12T12:57:45;102648.22;;;10.88;73.97
51297;BME280;37380;45.186;9.792;2023-02-12T13:01:09;102731.84;;;11.41;74.36
51297;BME280;37380;45.186;9.792;2023-02-12T13:09:47;102527.94;;;10.33;69.24
51297;BME280;37380;45.186;9.792;2023-02-12T13:12:45;102443.72;;;9.71;69.87
51297;BME280;37380;45.186;9.792;2023-02-12T13:18:19;102745.22;;;11.46;68.50
51297;BME280;37380;45.186;9.792;2023-02-12T13:21:17;102739.06;;;11.45;69.65
51297;BME280;37380;45.186;9.792;2023-02-12T13:24:49;102732.44;;;11.50;70.89
51297;BME280;37380;45.186;9.792;2023-02-12T13:27:55;102725.59;;;11.52;72.54
51297;BME280;37380;45.186;9.792;2023-02-12T13:30:32;102707.06;;;11.49;67.00
51297;BME280;37380;45.186;9.792;2023-02-12T13:33:17;102436.91;;;9.73;67.23
51297;BME280;37380;45.186;9.792;2023-02-12T13:35:54;102413.81;;;9.79;62.85
51297;BME280;37380;45.186;9.792;2023-02-12T13:38:29;102491.75;;;10.13;59.40
51297;BME280;37380;45.186;9.792;2023-02-12T13:41:14;102424.13;;;9.91;60.51
51297;BME280;37380;45.186;9.792;2023-02-12T13:44:22;102450.25;;;10.04;61.38
51297;BME280;37380;45.186;9.792;2023-02-12T13:49:57;102748.94;;;11.77;56.30
51297;BME280;37380;45.186;9.792;2023-02-12T13:52:42;102749.66;;;11.88;51.71
51297;BME280;37380;45.186;9.792;2023-02-12T13:55:37;102429.88;;;9.98;54.51
51297;BME280;37380;45.186;9.792;2023-02-12T14:01:06;102434.16;;;10.11;50.95
51297;BME280;37380;45.186;9.792;2023-02-12T14:03:41;102464.09;;;10.16;52.16
51297;BME280;37380;45.186;9.792;2023-02-12T14:06:18;102446.91;;;10.20;50.89
51297;BME280;37380;45.186;9.792;2023-02-12T14:09:06;102506.28;;;10.49;47.56
51297;BME280;37380;45.186;9.792;2023-02-12T14:11:46;102477.66;;;10.51;49.15
51297;BME280;37380;45.186;9.792;2023-02-12T14:14:33;102491.63;;;10.38;49.40
51297;BME280;37380;45.186;9.792;2023-02-12T14:23:26;102757.66;;;12.05;48.82
51297;BME280;37380;45.186;9.792;2023-02-12T14:25:58;102465.31;;;10.22;48.58
51297;BME280;37380;45.186;9.792;2023-02-12T14:39:31;102443.13;;;10.02;51.81
51297;BME280;37380;45.186;9.792;2023-02-12T14:45:36;102449.63;;;10.08;52.50
51297;BME280;37380;45.186;9.792;2023-02-12T14:48:04;102458.19;;;10.19;52.09
51297;BME280;37380;45.186;9.792;2023-02-12T14:50:43;102445.00;;;10.17;52.45
51297;BME280;37380;45.186;9.792;2023-02-12T14:53:37;102443.44;;;9.93;52.79
51297;BME280;37380;45.186;9.792;2023-02-12T14:56:21;102458.47;;;10.10;53.17
51297;BME280;37380;45.186;9.792;2023-02-12T14:59:22;102410.59;;;9.70;53.20
51297;BME280;37380;45.186;9.792;2023-02-12T15:01:57;102457.50;;;9.95;54.08
51297;BME280;37380;45.186;9.792;2023-02-12T15:04:29;102440.69;;;9.91;53.85
51297;BME280;37380;45.186;9.792;2023-02-12T15:07:11;102498.97;;;10.04;54.74
51297;BME280;37380;45.186;9.792;2023-02-12T15:09:52;102607.44;;;10.50;53.42
51297;BME280;37380;45.186;9.792;2023-02-12T15:12:34;102479.88;;;9.91;53.51
51297;BME280;37380;45.186;9.792;2023-02-12T15:15:39;102774.31;;;11.50;52.72
51297;BME280;37380;45.186;9.792;2023-02-12T15:21:26;102771.91;;;11.40;51.35
51297;BME280;37380;45.186;9.792;2023-02-12T15:24:38;102582.94;;;10.10;49.67
51297;BME280;37380;45.186;9.792;2023-02-12T15:28:37;102690.25;;;10.64;49.39
51297;BME280;37380;45.186;9.792;2023-02-12T15:31:21;102818.91;;;11.25;50.51
51297;BME280;37380;45.186;9.792;2023-02-12T15:34:15;102548.81;;;9.68;50.85
51297;BME280;37380;45.186;9.792;2023-02-12T15:37:22;102512.16;;;9.53;49.12
51297;BME280;37380;45.186;9.792;2023-02-12T15:41:04;102799.38;;;10.94;50.16
51297;BME280;37380;45.186;9.792;2023-02-12T15:44:45;102542.69;;;9.29;50.02
51297;BME280;37380;45.186;9.792;2023-02-12T15:48:21;102490.69;;;8.94;50.29
51297;BME280;37380;45.186;9.792;2023-02-12T15:51:55;102518.28;;;8.91;51.51
51297;BME280;37380;45.186;9.792;2023-02-12T15:59:13;102597.31;;;9.15;51.97
51297;BME280;37380;45.186;9.792;2023-02-12T16:02:42;102574.94;;;8.93;53.05
51297;BME280;37380;45.186;9.792;2023-02-12T16:05:31;102490.63;;;8.44;53.93
51297;BME280;37380;45.186;9.792;2023-02-12T16:08:24;102538.88;;;8.51;53.80
51297;BME280;37380;45.186;9.792;2023-02-12T16:11:03;102481.22;;;8.23;54.72
51297;BME280;37380;45.186;9.792;2023-02-12T16:13:57;102660.78;;;9.15;54.44
51297;BME280;37380;45.186;9.792;2023-02-12T16:16:46;102599.44;;;8.60;55.38
51297;BME280;37380;45.186;9.792;2023-02-12T16:23:05;102511.59;;;7.99;55.91
51297;BME280;37380;45.186;9.792;2023-02-12T16:25:53;102519.41;;;7.99;56.74
51297;BME280;37380;45.186;9.792;2023-02-12T16:28:45;102824.28;;;9.63;57.11
51297;BME280;37380;45.186;9.792;2023-02-12T16:31:24;102658.94;;;8.54;58.12
51297;BME280;37380;45.186;9.792;2023-02-12T16:34:26;102836.78;;;9.44;57.44
51297;BME280;37380;45.186;9.792;2023-02-12T16:37:00;102702.09;;;8.38;58.11
51297;BME280;37380;45.186;9.792;2023-02-12T16:43:23;102520.84;;;7.26;58.45
51297;BME280;37380;45.186;9.792;2023-02-12T16:46:48;102838.13;;;8.92;58.73
51297;BME280;37380;45.186;9.792;2023-02-12T16:50:13;102549.13;;;6.99;59.11
51297;BME280;37380;45.186;9.792;2023-02-12T16:53:31;102859.28;;;8.73;60.08